Cleveland, Illinois
Current Conditions -  °F | °C
As of 2:52 PM on Thursday 20 Nov 2014 (Local Time) from KMLI Reporting Station
Clear Clear  
Wind Chill: 16°   Ceiling: Unl
Heat Index: 28°   Visibility: 10mi
Dew Point:   Wind: 16mph
Humidity: 43%   Direction: 300°WNW
Pressure: 30.17"   Gusts: 25mph
Location:  41.4426°N, 90.3628°W
Report Text: KMLI 202052Z AUTO 30014G22KT 10SM CLR M02/M13 A3017 RMK AO2 SLP226 T10221133 53003
Loading
Personal Weather Stations






























Interactive Weather Map New forecast layout! Learn more

10-Day Weather Forecast

Advertisements
Track Severe Weather on mobile